Time;durP1;ratioP1;P1;durP2;ratioP2;P2;SDS_P1;SDS_P2;PMS_P1;PMS_P2;Temp;Humidity;BMP_temperature;BMP_pressure;BME280_temperature;BME280_humidity;BME280_pressure;Samples;Min_cycle;Max_cycle;Signal;HPM_P1;HPM_P2
2022/06/09 00:05:16;;;;;;;5.05;4.53;;;19.80;99.90;;;;;;5070810;28;20205;-95
2022/06/09 00:07:56;;;;;;;6.40;5.88;;;19.80;99.90;;;;;;5070329;28;20215;-95
2022/06/09 00:10:43;;;;;;;5.80;5.30;;;19.80;99.90;;;;;;5066191;28;20229;-95
2022/06/09 00:13:24;;;;;;;4.53;4.13;;;19.70;99.90;;;;;;5051198;28;20206;-96
2022/06/09 00:16:04;;;;;;;5.20;4.72;;;19.60;99.90;;;;;;5070060;28;20201;-96
2022/06/09 00:18:47;;;;;;;4.80;4.45;;;19.60;99.90;;;;;;5065397;28;20217;-95
2022/06/09 00:21:24;;;;;;;5.00;4.53;;;19.50;99.90;;;;;;5049720;28;20208;-96
2022/06/09 00:24:12;;;;;;;4.75;4.40;;;19.40;99.90;;;;;;5037879;28;20206;-96
2022/06/09 00:26:42;;;;;;;4.30;3.95;;;19.40;99.90;;;;;;5037267;28;20260;-95
2022/06/09 00:29:18;;;;;;;4.50;4.10;;;19.30;99.90;;;;;;5108411;22;20223;-96
2022/06/09 00:32:09;;;;;;;4.60;4.20;;;19.30;99.90;;;;;;5098328;27;20223;-96
2022/06/09 00:35:27;;;;;;;4.30;4.00;;;19.30;99.90;;;;;;5115725;27;20192;-95
2022/06/09 00:38:09;;;;;;;5.80;4.47;;;19.30;99.90;;;;;;5187627;22;20215;-96
2022/06/09 00:40:53;;;;;;;4.22;3.92;;;19.30;99.90;;;;;;5075566;28;20215;-96
2022/06/09 00:43:43;;;;;;;4.80;4.30;;;19.30;99.90;;;;;;5009729;28;20196;-95
2022/06/09 00:50:05;;;;;;;3.63;3.33;;;19.20;99.90;;;;;;5023958;28;20230;-95
2022/06/09 00:52:48;;;;;;;4.13;3.83;;;19.20;99.90;;;;;;5026162;28;20281;-95
2022/06/09 00:58:55;;;;;;;4.15;3.80;;;19.10;99.90;;;;;;5011284;28;20215;-96
2022/06/09 01:01:39;;;;;;;4.40;4.00;;;19.00;99.90;;;;;;5003634;28;20199;-94
2022/06/09 01:07:11;;;;;;;3.80;3.58;;;18.90;99.90;;;;;;5031501;28;20198;-90
2022/06/09 01:09:42;;;;;;;4.60;3.85;;;18.90;99.90;;;;;;5026932;28;20215;-88
2022/06/09 01:12:26;;;;;;;3.55;3.35;;;18.90;99.90;;;;;;5012384;28;20231;-90
2022/06/09 01:15:00;;;;;;;5.15;4.43;;;18.90;99.90;;;;;;5012876;28;20203;-90
2022/06/09 01:17:45;;;;;;;4.05;3.75;;;19.00;99.90;;;;;;5012858;28;20265;-89
2022/06/09 01:20:37;;;;;;;4.78;4.35;;;19.00;99.90;;;;;;5033943;28;20203;-90
2022/06/09 01:23:58;;;;;;;4.22;3.90;;;18.90;99.90;;;;;;5094483;28;20192;-90
2022/06/09 01:27:26;;;;;;;5.65;5.10;;;19.00;99.90;;;;;;5106832;28;20204;-90
2022/06/09 01:30:08;;;;;;;5.03;4.68;;;18.90;99.90;;;;;;5029307;28;20254;-90
2022/06/09 01:32:45;;;;;;;5.20;4.70;;;18.90;99.90;;;;;;5065856;28;20288;-90
2022/06/09 01:35:27;;;;;;;4.38;3.97;;;18.90;99.90;;;;;;5078683;28;20246;-90
2022/06/09 01:37:59;;;;;;;4.15;3.85;;;18.80;99.90;;;;;;5093992;28;20220;-89
2022/06/09 01:40:38;;;;;;;3.80;3.50;;;18.70;99.90;;;;;;5100343;28;20203;-91
2022/06/09 01:43:11;;;;;;;3.97;3.67;;;18.70;99.90;;;;;;5114686;27;20204;-90
2022/06/09 01:45:50;;;;;;;4.22;3.67;;;18.50;99.90;;;;;;5099910;28;20325;-91
2022/06/09 01:48:28;;;;;;;5.43;4.18;;;18.40;99.90;;;;;;5094186;28;20216;-90
2022/06/09 01:51:01;;;;;;;3.10;2.90;;;18.20;99.90;;;;;;5108170;28;20237;-90
2022/06/09 01:53:36;;;;;;;2.60;2.50;;;18.00;99.90;;;;;;5114531;28;20279;-91
2022/06/09 01:56:08;;;;;;;4.50;3.05;;;17.90;99.90;;;;;;5114450;28;20203;-91
2022/06/09 01:58:43;;;;;;;3.92;2.80;;;17.60;99.90;;;;;;5114212;28;20220;-90
2022/06/09 02:01:14;;;;;;;2.70;2.53;;;17.50;99.90;;;;;;5095457;28;20261;-91
2022/06/09 02:03:50;;;;;;;2.97;2.78;;;17.50;99.90;;;;;;5093774;28;20292;-91
2022/06/09 02:09:18;;;;;;;4.05;2.55;;;17.20;99.90;;;;;;5092232;28;20228;-91
2022/06/09 02:11:57;;;;;;;1.85;1.75;;;17.10;99.90;;;;;;5086982;28;20212;-91
2022/06/09 02:14:45;;;;;;;2.25;2.05;;;16.90;99.90;;;;;;5091241;28;20201;-91
2022/06/09 02:23:53;;;;;;;;;;;;;;;;;;;;;
2022/06/09 02:29:47;;;;;;;2.97;1.92;;;16.60;99.90;;;;;;5112748;28;20219;-90
2022/06/09 02:35:09;;;;;;;1.35;1.30;;;16.60;99.90;;;;;;5092761;28;20296;-91
2022/06/09 02:41:21;;;;;;;1.40;1.30;;;16.50;99.90;;;;;;5085010;28;20214;-91
2022/06/09 02:47:12;;;;;;;1.38;1.27;;;16.40;99.90;;;;;;5109573;28;20207;-92
2022/06/09 02:49:56;;;;;;;1.70;1.60;;;16.40;99.90;;;;;;5093272;28;20232;-92
2022/06/09 02:52:34;;;;;;;1.40;1.30;;;16.30;99.90;;;;;;5100466;28;20211;-91
2022/06/09 02:55:19;;;;;;;1.25;1.10;;;16.30;99.90;;;;;;5095240;28;20200;-90
2022/06/09 02:57:53;;;;;;;1.40;1.30;;;16.20;99.90;;;;;;5093002;28;20291;-90
2022/06/09 03:03:48;;;;;;;2.80;1.80;;;15.90;99.90;;;;;;5113546;28;20259;-89
2022/06/09 03:06:33;;;;;;;1.17;1.08;;;15.80;99.90;;;;;;5112670;28;20229;-88
2022/06/09 03:09:26;;;;;;;1.30;1.20;;;15.60;99.90;;;;;;5107607;28;20216;-87
2022/06/09 03:12:14;;;;;;;1.10;1.08;;;15.60;99.90;;;;;;5092766;28;20228;-87
2022/06/09 03:14:45;;;;;;;0.93;0.93;;;15.50;99.90;;;;;;5100258;28;20199;-87
2022/06/09 03:17:28;;;;;;;1.38;1.27;;;15.50;99.90;;;;;;5113122;28;20203;-88
2022/06/09 03:20:33;;;;;;;1.10;1.10;;;15.40;99.90;;;;;;5110271;28;20200;-88
2022/06/09 03:23:18;;;;;;;3.35;1.38;;;15.50;99.90;;;;;;5115407;28;20211;-89
2022/06/09 03:25:51;;;;;;;0.82;0.82;;;15.50;99.90;;;;;;5103113;28;20299;-89
2022/06/09 03:28:34;;;;;;;1.33;1.23;;;15.50;99.90;;;;;;5073081;28;20231;-90
2022/06/09 03:31:06;;;;;;;1.27;1.17;;;15.50;99.90;;;;;;5071679;28;20219;-90
2022/06/09 03:33:34;;;;;;;3.40;1.00;;;15.50;99.90;;;;;;5090107;28;20217;-91
2022/06/09 03:36:03;;;;;;;1.52;1.42;;;15.50;99.90;;;;;;5096451;28;20249;-91
2022/06/09 03:38:41;;;;;;;0.98;0.90;;;15.60;99.90;;;;;;5092482;28;20255;-91
2022/06/09 03:41:12;;;;;;;0.77;0.77;;;15.60;99.90;;;;;;5098588;28;20215;-90
2022/06/09 03:43:42;;;;;;;1.00;1.00;;;15.60;99.90;;;;;;5112570;28;20192;-91
2022/06/09 03:46:12;;;;;;;0.88;0.88;;;15.60;99.90;;;;;;5116109;28;20220;-92
2022/06/09 03:48:41;;;;;;;1.05;0.98;;;15.70;99.90;;;;;;5092879;28;20228;-92
2022/06/09 03:51:12;;;;;;;1.13;1.10;;;15.70;99.90;;;;;;5096258;28;20309;-91
2022/06/09 03:54:05;;;;;;;1.25;1.15;;;15.70;99.90;;;;;;5112545;28;20220;-91
2022/06/09 03:56:48;;;;;;;1.25;1.15;;;15.70;99.90;;;;;;5107866;28;20193;-91
2022/06/09 04:02:21;;;;;;;1.08;1.05;;;15.70;99.90;;;;;;5095802;28;20253;-91
2022/06/09 04:04:55;;;;;;;0.80;0.80;;;15.80;99.90;;;;;;5108721;28;20311;-92
2022/06/09 04:07:26;;;;;;;1.38;1.27;;;15.80;99.90;;;;;;5116384;28;20215;-92
2022/06/09 04:12:50;;;;;;;0.90;0.90;;;15.90;99.90;;;;;;5091206;28;20225;-92
2022/06/09 04:15:26;;;;;;;0.80;0.80;;;15.90;99.90;;;;;;5095745;28;20224;-92
2022/06/09 04:17:59;;;;;;;1.02;1.02;;;15.90;99.90;;;;;;5109282;28;20230;-92
2022/06/09 04:20:34;;;;;;;0.95;0.95;;;15.90;99.90;;;;;;5116282;28;20204;-93
2022/06/09 04:23:09;;;;;;;1.08;1.00;;;15.90;99.90;;;;;;5102029;28;20196;-93
2022/06/09 04:25:40;;;;;;;0.98;0.98;;;15.90;99.90;;;;;;5096185;28;20226;-92
2022/06/09 04:28:13;;;;;;;2.03;1.35;;;15.90;99.90;;;;;;5109560;28;20223;-93
2022/06/09 04:30:46;;;;;;;0.88;0.88;;;15.90;99.90;;;;;;5115594;28;20203;-92
2022/06/09 04:33:16;;;;;;;0.80;0.80;;;15.90;99.90;;;;;;5099066;28;20223;-92
2022/06/09 04:35:46;;;;;;;1.25;1.15;;;15.90;99.90;;;;;;5095416;28;20211;-92
2022/06/09 04:38:15;;;;;;;1.70;1.30;;;15.90;99.90;;;;;;5095579;28;20232;-92
2022/06/09 04:40:48;;;;;;;0.73;0.73;;;15.80;99.90;;;;;;5095517;28;20219;-92
2022/06/09 04:43:19;;;;;;;1.10;1.00;;;15.80;99.90;;;;;;5096118;28;20208;-92
2022/06/09 04:45:49;;;;;;;1.27;1.15;;;15.80;99.90;;;;;;5095410;28;20236;-92
2022/06/09 04:48:22;;;;;;;1.35;1.25;;;15.80;99.90;;;;;;5113044;28;20235;-92
2022/06/09 04:50:51;;;;;;;2.42;1.17;;;15.80;99.90;;;;;;5115544;28;20208;-92
2022/06/09 04:53:20;;;;;;;1.20;1.10;;;15.80;99.90;;;;;;5115176;28;20226;-92
2022/06/09 04:55:48;;;;;;;1.33;1.23;;;15.70;99.90;;;;;;5115856;28;20207;-92
2022/06/09 04:58:20;;;;;;;1.13;1.13;;;15.70;99.90;;;;;;5099046;28;20216;-92
2022/06/09 05:00:50;;;;;;;1.20;1.15;;;15.70;99.90;;;;;;5094893;28;20200;-92
2022/06/09 05:03:20;;;;;;;1.65;1.27;;;15.70;99.90;;;;;;5095318;28;20200;-92
2022/06/09 05:05:50;;;;;;;1.15;1.15;;;15.70;99.90;;;;;;5095210;28;20204;-92
2022/06/09 05:08:20;;;;;;;1.10;1.10;;;15.70;99.90;;;;;;5106645;28;20223;-92
2022/06/09 05:10:48;;;;;;;1.27;1.23;;;15.70;99.90;;;;;;5094798;28;20214;-93
2022/06/09 05:13:17;;;;;;;1.40;1.30;;;15.70;99.90;;;;;;5096976;28;20240;-87
2022/06/09 05:15:53;;;;;;;1.38;1.27;;;15.60;99.90;;;;;;5113574;28;20195;-88
2022/06/09 05:18:23;;;;;;;1.20;1.10;;;15.70;99.90;;;;;;5099058;28;20223;-88
2022/06/09 05:20:53;;;;;;;1.05;1.05;;;15.70;99.90;;;;;;5094840;28;20228;-88
2022/06/09 05:23:21;;;;;;;1.27;1.17;;;15.60;99.90;;;;;;5094376;28;20201;-89
2022/06/09 05:25:51;;;;;;;1.90;1.30;;;15.60;99.90;;;;;;5094168;28;20227;-88
2022/06/09 05:31:12;;;;;;;2.20;1.23;;;15.60;99.90;;;;;;5201246;22;20238;-90
2022/06/09 05:33:42;;;;;;;1.27;1.23;;;15.50;99.90;;;;;;5114931;28;20224;-91
2022/06/09 05:36:10;;;;;;;2.05;1.30;;;15.50;99.90;;;;;;5114944;28;20260;-91
2022/06/09 05:47:09;;;;;;;1.40;1.20;;;15.30;99.90;;;;;;5052132;28;20251;-92
2022/06/09 05:49:39;;;;;;;1.67;1.50;;;15.20;99.90;;;;;;5093718;28;20213;-92
2022/06/09 05:58:29;;;;;;;2.95;1.77;;;15.20;99.90;;;;;;5094264;28;20231;-91
2022/06/09 06:11:19;;;;;;;1.85;1.58;;;15.50;99.90;;;;;;5006224;28;20214;-95
2022/06/09 06:14:00;;;;;;;1.55;1.48;;;15.60;99.90;;;;;;5011621;28;20219;-90
2022/06/09 06:16:29;;;;;;;1.60;1.48;;;15.70;99.90;;;;;;5011929;28;20215;-92
2022/06/09 06:19:06;;;;;;;1.52;1.42;;;15.80;99.90;;;;;;5011782;28;20230;-92
2022/06/09 06:21:36;;;;;;;1.10;1.10;;;15.90;99.90;;;;;;5011074;28;20203;-92
2022/06/09 11:16:29;;;;;;;1.27;1.17;;;18.20;99.90;;;;;;4964246;28;20236;-95
2022/06/09 12:21:31;;;;;;;1.30;1.15;;;18.30;99.90;;;;;;5000426;28;20208;-95
2022/06/09 12:24:48;;;;;;;;;;;;;;;;;;;;;
2022/06/09 12:28:15;;;;;;;2.17;1.30;;;18.10;99.90;;;;;;4938116;29;20201;-95
2022/06/09 12:49:19;;;;;;;1.52;1.42;;;17.80;99.90;;;;;;4896249;29;20230;-94
2022/06/09 12:51:48;;;;;;;1.15;1.15;;;17.70;99.90;;;;;;4897670;29;20215;-95
2022/06/09 12:54:40;;;;;;;1.00;1.00;;;17.60;99.90;;;;;;4898152;29;20227;-94
2022/06/09 13:04:37;;;;;;;1.55;1.25;;;17.30;99.90;;;;;;4916831;28;20214;-95
2022/06/09 13:07:22;;;;;;;1.50;1.40;;;17.20;99.90;;;;;;4976334;28;20287;-95
2022/06/09 13:10:48;;;;;;;1.05;1.02;;;17.20;99.90;;;;;;4975655;28;20244;-94
2022/06/09 13:13:30;;;;;;;1.15;1.05;;;17.10;99.90;;;;;;4977699;28;20215;-96
2022/06/09 13:16:10;;;;;;;1.48;1.38;;;17.00;99.90;;;;;;4975654;28;20231;-96
2022/06/09 13:22:35;;;;;;;1.63;1.15;;;16.80;99.90;;;;;;4880901;29;20262;-95
2022/06/09 13:25:50;;;;;;;;;;;;;;;;;;;;;
2022/06/09 13:28:42;;;;;;;1.42;1.33;;;16.70;99.90;;;;;;4916022;29;20230;-95
2022/06/09 13:31:27;;;;;;;5.45;1.63;;;16.70;99.90;;;;;;4915783;29;20217;-95
2022/06/09 13:34:03;;;;;;;1.40;1.30;;;16.60;99.90;;;;;;4952290;28;20204;-93
2022/06/09 13:36:35;;;;;;;2.08;1.60;;;16.60;99.90;;;;;;4975430;28;20207;-94
2022/06/09 13:39:26;;;;;;;1.70;1.60;;;16.60;99.90;;;;;;4974962;28;20233;-95
2022/06/09 13:42:18;;;;;;;1.77;1.67;;;16.60;99.90;;;;;;4974858;28;20205;-95
2022/06/09 13:48:02;;;;;;;1.15;1.15;;;16.60;99.90;;;;;;4974082;28;20216;-94
2022/06/09 13:50:38;;;;;;;1.27;1.27;;;16.80;99.90;;;;;;4974983;28;20297;-95
2022/06/09 13:53:33;;;;;;;1.67;1.13;;;16.80;99.90;;;;;;4975209;28;20208;-95
2022/06/09 13:56:05;;;;;;;1.10;1.10;;;16.80;99.90;;;;;;4974766;28;20248;-95
2022/06/09 13:58:48;;;;;;;1.17;1.17;;;16.80;99.90;;;;;;4972303;28;20224;-95
2022/06/09 14:01:47;;;;;;;1.88;1.30;;;16.80;99.90;;;;;;4890321;28;20204;-94
2022/06/09 14:10:31;;;;;;;1.00;1.00;;;17.10;99.90;;;;;;4970671;28;20216;-95
2022/06/09 14:13:01;;;;;;;1.20;1.13;;;17.20;99.90;;;;;;4974832;28;20216;-95
2022/06/09 14:15:36;;;;;;;1.13;1.13;;;17.10;99.90;;;;;;4974689;28;20224;-95
2022/06/09 14:18:15;;;;;;;0.90;0.90;;;17.20;99.90;;;;;;4974579;28;20235;-95
2022/06/09 14:20:45;;;;;;;1.08;1.08;;;17.20;99.90;;;;;;4974319;28;20231;-96
2022/06/09 14:23:35;;;;;;;1.38;1.27;;;17.30;99.90;;;;;;4974908;28;20319;-96
2022/06/09 14:29:10;;;;;;;1.58;1.48;;;17.30;99.90;;;;;;4971950;28;20303;-96
2022/06/09 14:32:43;;;;;;;3.63;1.85;;;17.40;99.90;;;;;;4914851;29;20220;-95
2022/06/09 14:36:16;;;;;;;1.50;1.40;;;17.40;99.90;;;;;;4912375;29;20282;-95
2022/06/09 14:42:41;;;;;;;1.55;1.45;;;17.50;99.90;;;;;;5011113;23;20242;-95
2022/06/09 14:45:44;;;;;;;1.40;1.33;;;17.50;99.90;;;;;;4902062;29;20209;-95
2022/06/09 14:56:19;;;;;;;1.30;1.30;;;17.50;99.90;;;;;;4928396;29;20225;-95
2022/06/09 14:59:11;;;;;;;1.20;1.20;;;17.50;99.90;;;;;;4841953;29;20237;-95
2022/06/09 15:14:35;;;;;;;2.05;1.83;;;17.20;99.90;;;;;;5032369;28;20202;-95
2022/06/09 15:17:41;;;;;;;2.20;1.90;;;17.20;99.90;;;;;;5032299;28;20229;-95
2022/06/09 15:21:15;;;;;;;1.73;1.63;;;17.20;99.90;;;;;;4981564;28;20202;-94
2022/06/09 15:24:00;;;;;;;2.00;1.80;;;17.20;99.90;;;;;;5009985;28;20222;-95
2022/06/09 17:04:39;;;;;;;2.40;2.28;;;16.40;99.90;;;;;;5073816;28;20213;-93
2022/06/09 17:07:09;;;;;;;2.88;2.60;;;16.30;99.90;;;;;;5077937;28;20204;-93
2022/06/09 17:12:21;;;;;;;2.60;2.40;;;16.30;99.90;;;;;;5058360;28;20214;-93
2022/06/09 17:14:59;;;;;;;2.22;2.08;;;16.20;99.90;;;;;;5061604;28;20288;-93
2022/06/09 17:17:29;;;;;;;1.95;1.85;;;16.20;99.90;;;;;;5056361;28;20198;-94
2022/06/09 17:19:59;;;;;;;1.88;1.77;;;16.20;99.90;;;;;;5131797;22;20229;-92
2022/06/09 17:22:28;;;;;;;2.17;2.05;;;16.10;99.90;;;;;;5074445;28;20205;-92
2022/06/09 17:24:57;;;;;;;3.45;2.88;;;16.20;99.90;;;;;;5075871;28;20217;-92
2022/06/09 17:27:50;;;;;;;2.22;2.13;;;16.20;99.90;;;;;;5076225;28;20274;-95
2022/06/09 17:30:19;;;;;;;2.40;2.30;;;16.20;99.90;;;;;;5073777;28;20208;-96
2022/06/09 17:32:48;;;;;;;2.78;2.58;;;16.20;99.90;;;;;;5074497;28;20205;-96
2022/06/09 17:35:21;;;;;;;2.53;2.33;;;16.20;99.90;;;;;;5073842;28;20208;-96
2022/06/09 17:38:04;;;;;;;2.58;2.42;;;16.20;99.90;;;;;;5071273;28;20227;-95
2022/06/09 17:40:56;;;;;;;2.47;2.28;;;16.20;99.90;;;;;;5068046;28;20205;-96
2022/06/09 17:43:35;;;;;;;2.00;1.90;;;16.20;99.90;;;;;;5074109;28;20219;-92
2022/06/09 17:46:07;;;;;;;2.30;2.10;;;16.20;99.90;;;;;;5074094;28;20239;-92
2022/06/09 17:48:36;;;;;;;2.75;2.55;;;16.20;99.90;;;;;;5073285;28;20225;-93
2022/06/09 17:51:14;;;;;;;4.85;2.65;;;16.20;99.90;;;;;;5073752;28;20213;-93
2022/06/09 17:53:48;;;;;;;2.63;2.42;;;16.20;99.90;;;;;;5073694;28;20205;-92
2022/06/09 17:56:30;;;;;;;2.75;2.47;;;16.20;99.90;;;;;;5073248;28;20213;-95
2022/06/09 17:59:04;;;;;;;2.47;2.25;;;16.20;99.90;;;;;;5073767;28;20225;-96
2022/06/09 18:01:33;;;;;;;2.90;2.70;;;16.10;99.90;;;;;;5073875;28;20205;-96
2022/06/09 18:04:07;;;;;;;2.35;2.25;;;16.10;99.90;;;;;;5073588;28;20250;-94
2022/06/09 18:06:38;;;;;;;3.55;2.40;;;16.10;99.90;;;;;;5073810;28;20201;-94
2022/06/09 18:09:07;;;;;;;2.90;2.70;;;16.10;99.90;;;;;;5073574;28;20256;-94
2022/06/09 18:11:36;;;;;;;2.20;2.10;;;16.00;99.90;;;;;;5073240;28;20201;-94
2022/06/09 18:14:19;;;;;;;2.50;2.40;;;16.00;99.90;;;;;;5062996;28;20209;-94
2022/06/09 18:16:50;;;;;;;3.15;2.47;;;16.00;99.90;;;;;;5072159;28;20217;-94
2022/06/09 18:19:20;;;;;;;3.33;3.08;;;16.00;99.90;;;;;;5072790;28;20257;-94
2022/06/09 18:21:53;;;;;;;2.75;2.55;;;16.00;99.90;;;;;;5073195;28;20214;-95
2022/06/09 18:25:00;;;;;;;3.35;3.05;;;16.00;99.90;;;;;;5056034;28;20205;-93
2022/06/09 18:27:55;;;;;;;3.63;3.22;;;16.00;99.90;;;;;;5073209;28;20236;-94
2022/06/09 18:30:41;;;;;;;2.53;2.40;;;16.00;99.90;;;;;;5070089;28;20280;-94
2022/06/09 18:34:18;;;;;;;3.85;3.55;;;16.00;99.90;;;;;;5073040;28;20217;-95
2022/06/09 18:36:50;;;;;;;3.03;2.83;;;16.00;99.90;;;;;;5030723;28;20222;-94
2022/06/09 18:39:25;;;;;;;3.10;2.90;;;16.00;99.90;;;;;;5030884;28;20223;-94
2022/06/09 18:42:08;;;;;;;3.70;3.40;;;16.00;99.90;;;;;;5066103;28;20209;-93
2022/06/09 18:44:36;;;;;;;7.22;3.47;;;16.00;99.90;;;;;;5073102;28;20205;-93
2022/06/09 18:47:05;;;;;;;3.40;3.20;;;15.90;99.90;;;;;;5072985;28;20193;-93
2022/06/09 18:49:34;;;;;;;3.75;3.45;;;16.00;99.90;;;;;;5072861;28;20306;-94
2022/06/09 18:52:03;;;;;;;3.75;3.45;;;16.00;99.90;;;;;;5072763;28;20229;-93
2022/06/09 18:54:35;;;;;;;4.20;3.78;;;15.90;99.90;;;;;;5072792;28;20201;-94
2022/06/09 18:57:06;;;;;;;4.00;3.70;;;15.90;99.90;;;;;;5072758;28;20270;-94
2022/06/09 18:59:34;;;;;;;3.38;3.17;;;15.90;99.90;;;;;;5072577;28;20232;-93
2022/06/09 19:02:03;;;;;;;3.58;3.28;;;15.80;99.90;;;;;;5072173;28;20201;-93
2022/06/09 19:04:33;;;;;;;4.32;4.03;;;15.80;99.90;;;;;;5072503;28;20221;-94
2022/06/09 19:07:09;;;;;;;4.40;4.10;;;15.80;99.90;;;;;;5072595;28;20204;-95
2022/06/09 19:09:40;;;;;;;3.97;3.67;;;15.80;99.90;;;;;;5072664;28;20236;-93
2022/06/09 19:12:32;;;;;;;4.57;4.18;;;15.80;99.90;;;;;;5071984;28;20209;-95
2022/06/09 19:15:15;;;;;;;6.30;4.00;;;15.70;99.90;;;;;;5069143;28;20216;-93
2022/06/09 19:18:09;;;;;;;4.35;3.95;;;15.70;99.90;;;;;;5064623;28;20308;-94
2022/06/09 19:20:39;;;;;;;4.35;4.05;;;15.60;99.90;;;;;;5072660;28;20266;-93
2022/06/09 19:23:24;;;;;;;4.82;4.28;;;15.60;99.90;;;;;;5070324;28;20211;-93
2022/06/09 19:25:57;;;;;;;4.47;4.00;;;15.50;99.90;;;;;;5073136;28;20228;-94
2022/06/09 19:28:26;;;;;;;4.10;3.80;;;15.50;99.90;;;;;;5075272;28;20223;-93
2022/06/09 19:30:55;;;;;;;4.43;4.03;;;15.50;99.90;;;;;;5076276;28;20201;-93
2022/06/09 19:33:35;;;;;;;4.03;3.72;;;15.50;99.90;;;;;;5076688;28;20209;-93
2022/06/09 19:36:34;;;;;;;4.03;3.65;;;15.50;99.90;;;;;;5076480;28;20197;-93
2022/06/09 19:39:12;;;;;;;4.15;3.85;;;15.50;99.90;;;;;;5076248;28;20220;-94
2022/06/09 19:41:56;;;;;;;3.90;3.55;;;15.50;99.90;;;;;;5068478;28;20208;-94
2022/06/09 19:44:26;;;;;;;3.85;3.53;;;15.50;99.90;;;;;;5076474;28;20213;-94
2022/06/09 19:46:55;;;;;;;4.72;4.30;;;15.50;99.90;;;;;;5075962;28;20197;-93
2022/06/09 19:49:29;;;;;;;3.92;3.63;;;15.50;99.90;;;;;;5076281;28;20224;-94
2022/06/09 19:52:17;;;;;;;5.50;4.07;;;15.50;99.90;;;;;;5033723;28;20254;-92
2022/06/09 19:54:48;;;;;;;2.92;2.72;;;15.50;99.90;;;;;;5034019;28;20260;-94
2022/06/09 19:57:32;;;;;;;2.72;2.53;;;15.50;99.90;;;;;;5033904;28;20241;-93
2022/06/09 20:00:19;;;;;;;2.70;2.50;;;15.50;99.90;;;;;;5033777;28;20234;-94
2022/06/09 20:02:48;;;;;;;2.67;2.47;;;15.50;99.90;;;;;;5034019;28;20234;-94
2022/06/09 20:05:17;;;;;;;3.03;2.83;;;15.50;99.90;;;;;;5033634;28;20209;-94
2022/06/09 20:07:48;;;;;;;2.50;2.30;;;15.50;99.90;;;;;;5033694;28;20206;-94
2022/06/09 20:10:21;;;;;;;2.85;2.53;;;15.50;99.90;;;;;;5033874;28;20260;-94
2022/06/09 20:12:52;;;;;;;2.97;2.35;;;15.50;99.90;;;;;;5033263;28;20229;-94
2022/06/09 20:21:11;;;;;;;1.77;1.67;;;15.50;99.90;;;;;;5033524;28;20256;-93
2022/06/09 20:27:30;;;;;;;3.75;2.03;;;15.50;99.90;;;;;;5033342;28;20309;-94
2022/06/09 20:30:04;;;;;;;2.08;1.92;;;15.50;99.90;;;;;;5060505;28;20284;-94
2022/06/09 20:32:36;;;;;;;1.95;1.83;;;15.50;99.90;;;;;;5075620;28;20206;-93
2022/06/09 20:35:06;;;;;;;2.50;2.05;;;15.50;99.90;;;;;;5075640;28;20220;-93
2022/06/09 20:37:43;;;;;;;2.25;2.05;;;15.50;99.90;;;;;;5075648;28;20221;-92
2022/06/09 20:40:14;;;;;;;2.15;1.95;;;15.50;99.90;;;;;;5074021;28;20250;-93
2022/06/09 20:42:48;;;;;;;2.22;2.05;;;15.50;99.90;;;;;;5075572;28;20204;-95
2022/06/09 20:45:28;;;;;;;2.10;1.92;;;15.50;99.90;;;;;;5075245;28;20201;-94
2022/06/09 20:48:10;;;;;;;1.70;1.60;;;15.50;99.90;;;;;;5074786;28;20224;-94
2022/06/09 20:50:41;;;;;;;2.10;2.00;;;15.50;99.90;;;;;;5074987;28;20288;-94
2022/06/09 20:53:12;;;;;;;2.00;1.90;;;15.50;99.90;;;;;;5074873;28;20228;-94
2022/06/09 20:55:53;;;;;;;2.10;2.00;;;15.50;99.90;;;;;;5075149;28;20209;-93
2022/06/09 20:58:25;;;;;;;1.77;1.67;;;15.60;99.90;;;;;;5074598;28;20278;-94
2022/06/09 21:03:44;;;;;;;2.70;2.45;;;15.60;99.90;;;;;;5069506;28;20231;-94
2022/06/09 21:06:13;;;;;;;1.63;1.52;;;15.50;99.90;;;;;;5074591;28;20205;-95
2022/06/09 21:08:45;;;;;;;3.20;2.40;;;15.50;99.90;;;;;;5074295;28;20229;-94
2022/06/09 21:19:49;;;;;;;4.00;2.88;;;15.50;99.90;;;;;;5080465;28;20289;-94
2022/06/09 21:22:28;;;;;;;2.67;2.17;;;15.50;99.90;;;;;;5085123;28;20282;-94
2022/06/09 21:24:59;;;;;;;2.85;2.35;;;15.40;99.90;;;;;;5074921;28;20422;-94
2022/06/09 21:27:36;;;;;;;2.40;2.30;;;15.40;99.90;;;;;;5074806;28;20209;-94
2022/06/09 21:30:19;;;;;;;2.30;2.13;;;15.40;99.90;;;;;;5074213;28;20331;-93
2022/06/09 21:33:03;;;;;;;2.35;2.08;;;15.30;99.90;;;;;;5074148;28;20263;-95
2022/06/09 21:35:32;;;;;;;2.17;1.98;;;15.30;99.90;;;;;;5072892;28;20213;-94
2022/06/09 21:38:03;;;;;;;2.42;2.30;;;15.30;99.90;;;;;;5075987;28;20286;-94
2022/06/09 21:41:04;;;;;;;;;;;;;;;;;;;;;
2022/06/09 21:43:58;;;;;;;2.88;2.67;;;15.30;99.90;;;;;;5081235;28;20204;-92
2022/06/09 21:46:28;;;;;;;2.78;2.58;;;15.30;99.90;;;;;;5073130;28;20278;-92
2022/06/09 21:49:28;;;;;;;3.20;2.88;;;15.30;99.90;;;;;;5069821;28;20293;-94
2022/06/09 21:52:07;;;;;;;2.83;2.55;;;15.30;99.90;;;;;;5070187;28;20296;-94
2022/06/09 21:54:57;;;;;;;2.90;2.70;;;15.30;99.90;;;;;;5069941;28;20216;-95
2022/06/09 22:00:47;;;;;;;2.92;2.72;;;15.20;99.90;;;;;;5029246;28;20230;-93
2022/06/09 22:03:29;;;;;;;3.05;2.85;;;15.30;99.90;;;;;;5027485;28;20206;-95
2022/06/09 22:06:00;;;;;;;3.85;3.10;;;15.20;99.90;;;;;;5030824;28;20216;-93
2022/06/09 22:08:32;;;;;;;3.13;2.92;;;15.20;99.90;;;;;;5030781;28;20231;-94
2022/06/09 22:11:00;;;;;;;4.30;3.10;;;15.20;99.90;;;;;;5030915;28;20216;-94
2022/06/09 22:13:30;;;;;;;2.80;2.60;;;15.20;99.90;;;;;;5031138;28;20241;-94
2022/06/09 22:16:02;;;;;;;4.65;2.97;;;15.10;99.90;;;;;;5030920;28;20209;-93
2022/06/09 22:18:31;;;;;;;2.45;2.25;;;15.10;99.90;;;;;;5031002;28;20234;-93
2022/06/09 22:21:02;;;;;;;3.08;2.88;;;15.10;99.90;;;;;;5030693;28;20217;-94
2022/06/09 22:23:30;;;;;;;2.95;2.67;;;15.00;99.90;;;;;;5030546;28;20206;-93
2022/06/09 22:25:59;;;;;;;4.18;3.50;;;15.00;99.90;;;;;;5030681;28;20207;-94
2022/06/09 22:28:29;;;;;;;2.80;2.60;;;15.00;99.90;;;;;;5030915;28;20288;-94
2022/06/09 22:30:58;;;;;;;3.20;3.00;;;15.00;99.90;;;;;;5030869;28;20202;-94
2022/06/09 22:33:26;;;;;;;2.95;2.65;;;14.90;99.90;;;;;;5030513;28;20222;-94
2022/06/09 22:35:55;;;;;;;2.80;2.60;;;14.90;99.90;;;;;;5030646;28;20292;-94
2022/06/09 22:38:25;;;;;;;2.83;2.53;;;14.80;99.90;;;;;;5030432;28;20241;-93
2022/06/09 22:40:57;;;;;;;3.47;3.20;;;14.80;99.90;;;;;;5030136;28;20206;-93
2022/06/09 22:43:26;;;;;;;2.70;2.50;;;14.80;99.90;;;;;;5030789;28;20249;-94
2022/06/09 22:46:05;;;;;;;3.08;2.78;;;14.80;99.90;;;;;;5030621;28;20213;-94
2022/06/09 22:48:35;;;;;;;3.72;2.95;;;14.70;99.90;;;;;;5030669;28;20218;-91
2022/06/09 22:51:54;;;;;;;3.10;2.90;;;14.70;99.90;;;;;;5030325;28;20214;-93
2022/06/09 22:54:38;;;;;;;3.30;3.00;;;14.70;99.90;;;;;;5030321;28;20293;-92
2022/06/09 22:57:06;;;;;;;3.05;2.83;;;14.60;99.90;;;;;;5029917;28;20209;-92
2022/06/09 22:59:34;;;;;;;3.28;3.05;;;14.60;99.90;;;;;;5030069;28;20261;-92
2022/06/09 23:02:04;;;;;;;2.58;2.40;;;14.50;99.90;;;;;;5030083;28;20210;-93
2022/06/09 23:04:36;;;;;;;6.03;3.88;;;14.50;99.90;;;;;;5030580;28;20289;-91
2022/06/09 23:07:11;;;;;;;3.05;2.85;;;14.50;99.90;;;;;;5030029;28;20209;-92
2022/06/09 23:09:41;;;;;;;3.80;3.50;;;14.50;99.90;;;;;;5030645;28;20256;-92
2022/06/09 23:12:10;;;;;;;3.92;3.42;;;14.50;99.90;;;;;;5030233;28;20234;-92
2022/06/09 23:14:41;;;;;;;3.80;3.50;;;14.50;99.90;;;;;;5030230;28;20218;-92
2022/06/09 23:17:12;;;;;;;3.42;3.22;;;14.40;99.90;;;;;;5030183;28;20206;-92
2022/06/09 23:19:41;;;;;;;4.03;3.47;;;14.40;99.90;;;;;;5030144;28;20238;-92
2022/06/09 23:22:09;;;;;;;4.72;4.30;;;14.40;99.90;;;;;;5030129;28;20276;-93
2022/06/09 23:24:38;;;;;;;3.70;3.38;;;14.40;99.90;;;;;;5030215;28;20207;-92
2022/06/09 23:27:12;;;;;;;13.50;4.50;;;14.40;99.90;;;;;;5030341;28;20206;-92
2022/06/09 23:29:41;;;;;;;5.60;4.20;;;14.40;99.90;;;;;;5030049;28;20284;-92
2022/06/09 23:32:10;;;;;;;3.83;3.50;;;14.40;99.90;;;;;;5029882;28;20210;-91
2022/06/09 23:34:39;;;;;;;4.03;3.60;;;14.40;99.90;;;;;;5032062;28;20226;-92
2022/06/09 23:37:08;;;;;;;4.18;3.83;;;14.40;99.90;;;;;;5032257;28;20256;-92
2022/06/09 23:39:37;;;;;;;7.20;4.35;;;14.40;99.90;;;;;;5032375;28;20230;-92
2022/06/09 23:42:06;;;;;;;7.93;3.53;;;14.40;99.90;;;;;;5032024;28;20289;-92
2022/06/09 23:47:22;;;;;;;4.18;3.83;;;14.40;99.90;;;;;;5032365;28;20210;-92
2022/06/09 23:49:50;;;;;;;5.97;3.78;;;14.40;99.90;;;;;;5033196;28;20222;-92
2022/06/09 23:52:20;;;;;;;4.57;4.22;;;14.40;99.90;;;;;;5032792;28;20198;-91
2022/06/09 23:54:49;;;;;;;5.18;4.68;;;14.40;99.90;;;;;;5032506;28;20206;-92
2022/06/09 23:57:17;;;;;;;8.25;4.10;;;14.40;99.90;;;;;;5031966;28;20225;-91
2022/06/09 23:59:48;;;;;;;4.68;3.28;;;14.40;99.90;;;;;;5031925;28;20226;-92
